createdAt,value
2022-12-13T00:01:47.618Z,0.10
2022-12-13T00:04:15.507Z,0.10
2022-12-13T00:06:43.941Z,0.10
2022-12-13T00:09:14.760Z,0.00
2022-12-13T00:11:43.298Z,0.00
2022-12-13T00:14:11.810Z,0.00
2022-12-13T00:16:40.108Z,0.00
2022-12-13T00:19:07.671Z,2.00
2022-12-13T00:21:35.598Z,0.10
2022-12-13T00:24:06.020Z,0.00
2022-12-13T00:26:34.570Z,0.00
2022-12-13T00:29:04.617Z,0.00
2022-12-13T00:34:20.802Z,0.00
2022-12-13T00:36:49.126Z,0.00
2022-12-13T00:39:17.527Z,0.00
2022-12-13T00:41:46.178Z,-0.10
2022-12-13T00:44:14.850Z,-0.20
2022-12-13T00:46:43.059Z,-0.20
2022-12-13T00:49:12.076Z,-0.10
2022-12-13T00:51:41.180Z,-0.20
2022-12-13T00:54:10.345Z,-0.20
2022-12-13T00:56:38.895Z,-0.20
2022-12-13T00:59:06.690Z,-0.20
2022-12-13T01:01:36.852Z,-0.30
2022-12-13T01:04:05.942Z,-0.20
2022-12-13T01:06:36.323Z,-0.20
2022-12-13T01:09:06.712Z,-0.20
2022-12-13T01:11:34.605Z,-0.20
2022-12-13T01:14:03.425Z,-0.30
2022-12-13T01:16:31.624Z,-0.30
2022-12-13T01:18:59.367Z,-0.30
2022-12-13T01:21:27.210Z,-0.30
2022-12-13T01:24:05.945Z,-0.30
2022-12-13T01:26:34.241Z,-0.30
2022-12-13T01:29:02.198Z,-0.30
2022-12-13T01:31:29.919Z,-0.40
2022-12-13T01:33:58.250Z,0.80
2022-12-13T01:36:27.352Z,0.40
2022-12-13T01:38:58.681Z,-0.40
2022-12-13T01:41:28.994Z,-0.30
2022-12-13T01:44:03.688Z,-0.40
2022-12-13T01:46:34.254Z,-0.40
2022-12-13T01:49:20.185Z,-0.30
2022-12-13T01:51:56.600Z,-0.40
2022-12-13T01:54:33.465Z,0.10
2022-12-13T01:57:06.710Z,-0.30
2022-12-13T01:59:36.657Z,-0.50
2022-12-13T02:02:06.215Z,-0.40
2022-12-13T02:05:01.310Z,-0.50
2022-12-13T02:07:32.141Z,-0.40
2022-12-13T02:10:01.975Z,-0.40
2022-12-13T02:12:33.764Z,-0.50
2022-12-13T02:15:08.968Z,-0.50
2022-12-13T02:17:53.041Z,-0.60
2022-12-13T02:20:38.772Z,-0.50
2022-12-13T02:23:30.808Z,-0.60
2022-12-13T02:26:16.007Z,-0.60
2022-12-13T02:29:09.506Z,-0.70
2022-12-13T02:32:06.307Z,-0.70
2022-12-13T02:34:55.889Z,-0.70
2022-12-13T02:37:25.415Z,-0.80
2022-12-13T02:40:11.290Z,-0.80
2022-12-13T02:42:45.526Z,-0.80
2022-12-13T02:45:21.246Z,-0.80
2022-12-13T02:47:52.678Z,-0.80
2022-12-13T02:50:22.153Z,1.60
2022-12-13T02:52:51.724Z,-0.80
2022-12-13T02:55:21.121Z,-0.70
2022-12-13T02:57:50.273Z,-0.70
2022-12-13T03:00:27.411Z,-0.70
2022-12-13T03:03:15.251Z,-0.80
2022-12-13T03:06:33.998Z,-0.70
2022-12-13T03:09:11.143Z,-0.80
2022-12-13T03:12:12.829Z,-0.80
2022-12-13T03:14:55.686Z,-0.90
2022-12-13T03:17:26.532Z,-0.90
2022-12-13T03:19:54.782Z,-1.00
2022-12-13T03:22:24.006Z,-0.30
2022-12-13T03:24:53.133Z,-1.20
2022-12-13T03:27:20.944Z,-1.20
2022-12-13T03:29:48.350Z,-1.20
2022-12-13T03:32:16.166Z,-1.20
2022-12-13T03:34:45.556Z,-1.30
2022-12-13T03:37:15.662Z,-1.30
2022-12-13T03:39:43.144Z,-1.30
2022-12-13T03:42:10.771Z,-1.30
2022-12-13T03:44:38.195Z,-1.30
2022-12-13T03:47:05.856Z,-1.40
2022-12-13T03:49:35.507Z,-1.40
2022-12-13T03:52:03.554Z,-1.40
2022-12-13T03:54:30.976Z,-1.30
2022-12-13T03:56:58.603Z,-1.30
2022-12-13T03:59:27.985Z,-1.40
2022-12-13T04:01:55.642Z,-1.50
2022-12-13T04:04:23.149Z,-1.60
2022-12-13T04:06:50.749Z,-1.60
2022-12-13T04:09:17.991Z,-0.80
2022-12-13T04:12:05.014Z,-1.70
2022-12-13T04:14:32.315Z,-1.70
2022-12-13T04:17:00.087Z,-1.70
2022-12-13T04:19:27.465Z,-1.80
2022-12-13T04:21:55.586Z,-1.80
2022-12-13T04:24:31.610Z,-1.80
2022-12-13T04:27:01.657Z,-1.80
2022-12-13T04:29:33.803Z,-1.80
2022-12-13T04:32:04.258Z,-2.00
2022-12-13T04:34:37.290Z,-0.40
2022-12-13T04:37:06.468Z,-1.90
2022-12-13T04:39:34.686Z,-2.00
2022-12-13T04:42:03.021Z,-1.60
2022-12-13T04:44:36.559Z,-1.90
2022-12-13T04:47:05.492Z,-1.90
2022-12-13T04:49:33.607Z,-1.90
2022-12-13T04:52:02.593Z,-1.90
2022-12-13T04:54:36.021Z,-1.80
2022-12-13T04:57:10.913Z,-1.90
2022-12-13T04:59:38.607Z,-1.80
2022-12-13T05:02:08.635Z,-1.90
2022-12-13T05:04:36.679Z,-1.80
2022-12-13T05:07:04.753Z,-1.80
2022-12-13T05:09:32.414Z,-1.80
2022-12-13T05:12:01.583Z,-1.80
2022-12-13T05:14:32.973Z,0.20
2022-12-13T05:17:02.052Z,-0.90
2022-12-13T05:19:31.195Z,-1.80
2022-12-13T05:22:01.227Z,-1.80
2022-12-13T05:24:31.975Z,0.50
2022-12-13T05:27:00.365Z,-1.90
2022-12-13T05:29:28.211Z,-2.00
2022-12-13T05:31:56.035Z,-1.90
2022-12-13T05:34:23.586Z,-2.00
2022-12-13T05:36:51.316Z,-2.10
2022-12-13T05:39:28.034Z,-2.10
2022-12-13T05:42:01.492Z,-2.00
2022-12-13T05:44:32.733Z,-2.00
2022-12-13T05:47:02.542Z,-2.00
2022-12-13T05:49:31.590Z,-2.00
2022-12-13T05:51:59.313Z,0.20
2022-12-13T05:54:26.843Z,-1.00
2022-12-13T05:56:54.562Z,-2.00
2022-12-13T05:59:22.473Z,-2.00
2022-12-13T06:01:50.181Z,-2.10
2022-12-13T06:04:22.082Z,-2.10
2022-12-13T06:06:52.844Z,-2.20
2022-12-13T06:09:21.148Z,-2.20
2022-12-13T06:11:49.296Z,-2.30
2022-12-13T06:14:22.637Z,-2.30
2022-12-13T06:16:52.823Z,-2.40
2022-12-13T06:19:24.509Z,-2.40
2022-12-13T06:21:54.821Z,-2.40
2022-12-13T06:24:23.608Z,-2.40
2022-12-13T06:26:52.009Z,-2.40
2022-12-13T06:29:23.053Z,-2.40
2022-12-13T06:32:03.788Z,-0.30
2022-12-13T06:34:35.853Z,-2.50
2022-12-13T06:37:07.191Z,-2.40
2022-12-13T06:39:35.548Z,-2.30
2022-12-13T06:42:08.726Z,-2.40
2022-12-13T06:44:36.342Z,-2.40
2022-12-13T06:47:11.791Z,-2.40
2022-12-13T06:49:43.610Z,-2.40
2022-12-13T06:52:14.395Z,-2.30
2022-12-13T06:54:43.340Z,-2.30
2022-12-13T06:57:12.611Z,-1.60
2022-12-13T06:59:40.543Z,-1.20
2022-12-13T07:02:15.488Z,-0.20
2022-12-13T07:04:53.156Z,-2.30
2022-12-13T07:07:20.638Z,-2.30
2022-12-13T07:09:47.849Z,-2.30
2022-12-13T07:12:15.374Z,-2.30
2022-12-13T07:14:42.867Z,-2.30
2022-12-13T07:17:11.006Z,-2.20
2022-12-13T07:19:38.388Z,-2.20
2022-12-13T07:22:06.232Z,-2.20
2022-12-13T07:24:35.295Z,-0.70
2022-12-13T07:27:03.959Z,-2.20
2022-12-13T07:29:31.322Z,-2.00
2022-12-13T07:32:01.479Z,-2.00
2022-12-13T07:34:30.428Z,-2.10
2022-12-13T07:36:58.360Z,0.50
2022-12-13T07:39:28.793Z,-1.90
2022-12-13T07:41:56.727Z,-2.00
2022-12-13T07:44:25.009Z,-2.00
2022-12-13T07:46:53.012Z,-2.10
2022-12-13T07:49:20.440Z,-2.00
2022-12-13T07:51:49.214Z,-2.00
2022-12-13T07:54:16.564Z,-1.90
2022-12-13T07:56:44.525Z,-2.00
2022-12-13T07:59:13.869Z,-1.90
2022-12-13T08:01:41.661Z,-1.90
2022-12-13T08:04:10.211Z,0.50
2022-12-13T08:06:39.013Z,-1.80
2022-12-13T08:09:06.977Z,-1.80
2022-12-13T08:11:34.741Z,-1.90
2022-12-13T08:14:02.037Z,-1.70
2022-12-13T08:16:30.552Z,-1.70
2022-12-13T08:19:03.215Z,-1.60
2022-12-13T08:21:58.231Z,-1.60
2022-12-13T08:24:28.333Z,-1.60
2022-12-13T08:27:01.416Z,0.20
2022-12-13T08:29:33.377Z,-1.60
2022-12-13T08:32:11.886Z,-1.50
2022-12-13T08:34:42.146Z,-1.50
2022-12-13T08:37:09.803Z,-1.40
2022-12-13T08:39:38.805Z,0.30
2022-12-13T08:42:16.881Z,-1.30
2022-12-13T08:44:47.102Z,-1.30
2022-12-13T08:47:22.953Z,-1.40
2022-12-13T08:50:03.086Z,-1.40
2022-12-13T08:52:39.837Z,-1.20
2022-12-13T08:55:10.599Z,-1.10
2022-12-13T08:57:40.808Z,-1.10
2022-12-13T09:00:11.680Z,-1.20
2022-12-13T09:02:39.458Z,-1.10
2022-12-13T09:05:09.312Z,-1.20
2022-12-13T09:07:39.753Z,-1.20
2022-12-13T09:10:26.671Z,-1.10
2022-12-13T09:13:01.698Z,-1.10
2022-12-13T09:15:34.367Z,-1.00
2022-12-13T09:18:04.914Z,-1.00
2022-12-13T09:20:40.506Z,-0.90
2022-12-13T09:23:13.496Z,1.40
2022-12-13T09:25:44.868Z,-0.80
2022-12-13T09:28:20.407Z,-0.80
2022-12-13T09:30:48.245Z,-0.70
2022-12-13T09:33:17.652Z,1.20
2022-12-13T09:35:57.060Z,-0.60
2022-12-13T09:38:24.503Z,-0.60
2022-12-13T09:41:02.014Z,-0.60
2022-12-13T09:43:42.860Z,-0.40
2022-12-13T09:46:34.666Z,-0.50
2022-12-13T09:49:52.971Z,-0.50
2022-12-13T09:52:25.000Z,-0.30
2022-12-13T09:54:55.321Z,-0.30
2022-12-13T09:57:32.079Z,-0.20
2022-12-13T10:00:05.812Z,1.20
2022-12-13T10:02:48.514Z,-0.20
2022-12-13T10:05:46.307Z,-0.20
2022-12-13T10:08:17.811Z,-0.30
2022-12-13T10:10:45.593Z,-0.20
2022-12-13T10:13:27.751Z,-0.20
2022-12-13T10:16:02.465Z,-0.10
2022-12-13T10:18:36.045Z,0.00
2022-12-13T10:21:09.231Z,0.10
2022-12-13T10:23:59.935Z,0.10
2022-12-13T10:26:25.308Z,0.30
2022-12-13T10:29:03.965Z,0.40
2022-12-13T10:31:41.100Z,0.40
2022-12-13T10:34:21.610Z,0.40
2022-12-13T10:36:49.519Z,0.50
2022-12-13T10:39:40.038Z,0.40
2022-12-13T10:42:22.795Z,0.40
2022-12-13T10:45:23.523Z,0.20
2022-12-13T10:47:52.984Z,0.10
2022-12-13T10:50:29.249Z,-0.10
2022-12-13T10:52:59.026Z,2.30
2022-12-13T10:55:34.212Z,-0.10
2022-12-13T10:58:12.558Z,-0.20
2022-12-13T11:00:43.063Z,-0.10
2022-12-13T11:03:29.613Z,-0.10
2022-12-13T11:06:15.283Z,0.30
2022-12-13T11:08:45.527Z,0.00
2022-12-13T11:11:17.901Z,0.00
2022-12-13T11:13:54.264Z,0.00
2022-12-13T11:16:26.973Z,-0.10
2022-12-13T11:18:56.921Z,0.10
2022-12-13T11:21:37.006Z,2.50
2022-12-13T11:24:07.993Z,2.20
2022-12-13T11:26:39.528Z,0.20
2022-12-13T11:29:26.282Z,0.20
2022-12-13T11:32:11.158Z,0.20
2022-12-13T11:35:12.878Z,0.30
2022-12-13T11:38:03.657Z,0.50
2022-12-13T11:40:49.890Z,0.30
2022-12-13T11:43:36.198Z,0.30
2022-12-13T11:46:22.713Z,0.30
2022-12-13T11:48:59.836Z,0.40
2022-12-13T11:51:34.560Z,0.20
2022-12-13T11:54:10.903Z,0.20
2022-12-13T11:56:43.157Z,0.20
2022-12-13T11:59:40.037Z,0.20
2022-12-13T12:02:21.760Z,0.30
2022-12-13T12:04:59.682Z,0.30
2022-12-13T12:08:21.179Z,0.30
2022-12-13T12:10:50.120Z,0.30
2022-12-13T12:13:50.863Z,0.40
2022-12-13T12:16:39.545Z,0.40
2022-12-13T12:19:15.178Z,0.30
2022-12-13T12:22:13.675Z,0.30
2022-12-13T12:24:57.816Z,0.50
2022-12-13T12:27:47.248Z,0.40
2022-12-13T12:30:27.648Z,0.50
2022-12-13T12:33:09.759Z,0.60
2022-12-13T12:35:46.822Z,0.60
2022-12-13T12:38:56.558Z,0.60
2022-12-13T12:42:00.132Z,0.80
2022-12-13T12:44:43.034Z,0.80
2022-12-13T12:47:38.163Z,0.70
2022-12-13T12:50:19.477Z,0.70
2022-12-13T12:53:14.395Z,0.60
2022-12-13T12:55:49.310Z,0.50
2022-12-13T12:58:26.101Z,0.40
2022-12-13T13:01:43.956Z,0.50
2022-12-13T13:04:22.668Z,0.60
2022-12-13T13:07:04.633Z,0.70
2022-12-13T13:09:55.129Z,0.80
2022-12-13T13:12:29.713Z,0.80
2022-12-13T13:14:58.450Z,1.30
2022-12-13T13:17:26.399Z,0.80
2022-12-13T13:20:12.399Z,0.90
2022-12-13T13:22:44.263Z,0.90
2022-12-13T13:25:31.295Z,0.90
2022-12-13T13:28:06.551Z,0.70
2022-12-13T13:30:35.804Z,0.40
2022-12-13T13:33:04.172Z,0.30
2022-12-13T13:35:38.222Z,0.20
2022-12-13T13:38:48.968Z,0.10
2022-12-13T13:41:39.713Z,0.00
2022-12-13T13:44:44.929Z,0.00
2022-12-13T13:47:22.809Z,-0.10
2022-12-13T13:50:13.301Z,-0.20
2022-12-13T13:53:20.208Z,-0.20
2022-12-13T13:56:14.764Z,-0.30
2022-12-13T13:58:45.609Z,-0.30
2022-12-13T14:01:51.304Z,-0.30
2022-12-13T14:04:38.081Z,-0.40
2022-12-13T14:07:27.177Z,-0.50
2022-12-13T14:10:04.720Z,-0.60
2022-12-13T14:13:07.027Z,-0.80
2022-12-13T14:15:52.777Z,-0.90
2022-12-13T14:18:48.519Z,-0.90
2022-12-13T14:21:34.719Z,-0.90
2022-12-13T14:24:17.611Z,0.00
2022-12-13T14:27:21.480Z,-1.00
2022-12-13T14:29:58.420Z,-1.10
2022-12-13T14:32:37.463Z,-1.20
2022-12-13T14:35:25.930Z,-1.20
2022-12-13T14:38:05.867Z,-1.20
2022-12-13T14:40:37.712Z,-0.90
2022-12-13T14:43:05.396Z,-1.30
2022-12-13T14:45:38.254Z,-1.20
2022-12-13T14:48:12.842Z,-1.30
2022-12-13T14:50:44.100Z,-1.30
2022-12-13T14:53:41.424Z,-0.20
2022-12-13T14:56:28.543Z,-1.30
2022-12-13T14:58:59.485Z,-1.20
2022-12-13T15:01:38.575Z,-1.30
2022-12-13T15:04:21.353Z,-1.30
2022-12-13T15:06:56.678Z,-1.20
2022-12-13T15:09:28.988Z,-1.30
2022-12-13T15:12:14.966Z,-1.20
2022-12-13T15:14:50.837Z,-1.30
2022-12-13T15:17:40.213Z,-1.40
2022-12-13T15:20:23.578Z,-1.40
2022-12-13T15:23:06.283Z,-1.50
2022-12-13T15:25:39.064Z,-1.50
2022-12-13T15:28:08.368Z,-1.50
2022-12-13T15:30:36.671Z,-1.40
2022-12-13T15:33:17.388Z,-1.50
2022-12-13T15:35:48.143Z,-1.50
2022-12-13T15:38:28.811Z,-1.40
2022-12-13T15:40:57.374Z,-1.40
2022-12-13T15:43:37.751Z,-1.50
2022-12-13T15:46:08.285Z,-1.50
2022-12-13T15:48:39.788Z,-1.50
2022-12-13T15:51:13.243Z,-1.60
2022-12-13T15:54:11.984Z,-1.50
2022-12-13T15:56:58.258Z,-1.60
2022-12-13T15:59:28.987Z,-1.60
2022-12-13T16:01:58.715Z,-1.10
2022-12-13T16:04:29.782Z,-1.80
2022-12-13T16:06:57.916Z,-1.90
2022-12-13T16:09:38.422Z,-1.90
2022-12-13T16:12:07.653Z,-1.90
2022-12-13T16:14:49.238Z,-2.00
2022-12-13T16:17:25.870Z,-2.00
2022-12-13T16:19:55.542Z,-1.20
2022-12-13T16:22:24.279Z,-2.20
2022-12-13T16:24:52.975Z,-2.30
2022-12-13T16:27:20.341Z,-1.80
2022-12-13T16:29:48.337Z,-2.30
2022-12-13T16:32:15.935Z,-2.30
2022-12-13T16:34:43.807Z,-0.90
2022-12-13T16:37:26.373Z,0.00
2022-12-13T16:39:56.345Z,-2.40
2022-12-13T16:42:26.403Z,-0.60
2022-12-13T16:45:24.865Z,-2.20
2022-12-13T16:47:49.629Z,-2.20
2022-12-13T16:50:20.154Z,-2.00
2022-12-13T16:52:48.757Z,-2.10
2022-12-13T16:55:16.780Z,-2.10
2022-12-13T16:58:05.244Z,-2.10
2022-12-13T17:00:33.980Z,-2.10
2022-12-13T17:03:02.428Z,-2.10
2022-12-13T17:05:31.431Z,-2.10
2022-12-13T17:07:59.158Z,-2.10
2022-12-13T17:10:27.676Z,-2.00
2022-12-13T17:12:55.435Z,-2.00
2022-12-13T17:15:23.265Z,-2.10
2022-12-13T17:17:51.035Z,-2.00
2022-12-13T17:20:19.299Z,-1.90
2022-12-13T17:22:47.403Z,-2.10
2022-12-13T17:25:16.892Z,-2.10
2022-12-13T17:27:46.031Z,-2.10
2022-12-13T17:30:19.536Z,-2.10
2022-12-13T17:32:47.603Z,-2.10
2022-12-13T17:35:18.598Z,-2.10
2022-12-13T17:37:48.005Z,-2.10
2022-12-13T17:40:17.181Z,-2.20
2022-12-13T17:42:46.053Z,-2.20
2022-12-13T17:45:13.828Z,-2.20
2022-12-13T17:47:41.287Z,-2.30
2022-12-13T17:50:09.715Z,-2.30
2022-12-13T17:52:39.331Z,-2.30
2022-12-13T17:55:11.211Z,-2.30
2022-12-13T17:57:42.567Z,-2.30
2022-12-13T18:00:11.731Z,-2.20
2022-12-13T18:02:41.951Z,-2.20
2022-12-13T18:05:26.377Z,-2.30
2022-12-13T18:07:53.979Z,-2.30
2022-12-13T18:10:26.374Z,-2.10
2022-12-13T18:12:58.220Z,-2.30
2022-12-13T18:15:26.389Z,-1.40
2022-12-13T18:18:13.673Z,-2.20
2022-12-13T18:20:42.032Z,-2.10
2022-12-13T18:23:09.836Z,-2.20
2022-12-13T18:25:37.883Z,-2.10
2022-12-13T18:28:05.945Z,-2.10
2022-12-13T18:30:34.009Z,-2.10
2022-12-13T18:33:01.663Z,-2.10
2022-12-13T18:35:29.775Z,-2.00
2022-12-13T18:37:57.481Z,-2.00
2022-12-13T18:40:25.631Z,-2.10
2022-12-13T18:42:53.432Z,-2.00
2022-12-13T18:45:21.517Z,-1.80
2022-12-13T18:47:49.241Z,-2.10
2022-12-13T18:50:17.168Z,-2.10
2022-12-13T18:52:44.981Z,-2.10
2022-12-13T18:55:13.578Z,-2.10
2022-12-13T18:57:41.416Z,-2.20
2022-12-13T19:00:12.149Z,-2.20
2022-12-13T19:02:39.668Z,-2.20
2022-12-13T19:05:08.105Z,-2.20
2022-12-13T19:07:36.789Z,-2.30
2022-12-13T19:10:05.085Z,-2.20
2022-12-13T19:12:32.584Z,-2.20
2022-12-13T19:15:01.053Z,-2.20
2022-12-13T19:17:28.971Z,-2.10
2022-12-13T19:19:56.895Z,-2.20
2022-12-13T19:22:24.790Z,-0.20
2022-12-13T19:24:52.866Z,-2.30
2022-12-13T19:27:20.523Z,-2.30
2022-12-13T19:29:48.787Z,-2.40
2022-12-13T19:32:16.510Z,-2.40
2022-12-13T19:34:44.784Z,-0.70
2022-12-13T19:37:12.219Z,-2.60
2022-12-13T19:39:41.542Z,-0.70
2022-12-13T19:42:09.073Z,-2.80
2022-12-13T19:44:36.786Z,-2.90
2022-12-13T19:47:04.194Z,-2.90
2022-12-13T19:49:31.893Z,-2.30
2022-12-13T19:52:00.432Z,-3.00
2022-12-13T19:54:28.578Z,-3.00
2022-12-13T19:56:59.227Z,-3.00
2022-12-13T19:59:30.607Z,-3.10
2022-12-13T20:02:00.905Z,-3.30
2022-12-13T20:04:29.375Z,-3.30
2022-12-13T20:06:57.465Z,-3.50
2022-12-13T20:09:25.626Z,-3.50
2022-12-13T20:11:54.241Z,-3.50
2022-12-13T20:14:22.232Z,-3.50
2022-12-13T20:16:49.883Z,-3.50
2022-12-13T20:19:18.242Z,-3.40
2022-12-13T20:21:46.638Z,-3.40
2022-12-13T20:24:14.518Z,-2.30
2022-12-13T20:26:42.047Z,-3.40
2022-12-13T20:29:11.126Z,-3.40
2022-12-13T20:31:40.209Z,-3.40
2022-12-13T20:34:15.060Z,-3.40
2022-12-13T20:36:43.306Z,-2.30
2022-12-13T20:39:13.516Z,-3.40
2022-12-13T20:41:41.831Z,-3.50
2022-12-13T20:44:12.527Z,-3.50
2022-12-13T20:46:40.624Z,-3.50
2022-12-13T20:49:10.261Z,-3.50
2022-12-13T20:51:40.422Z,-3.50
2022-12-13T20:54:09.284Z,-3.50
2022-12-13T20:56:38.676Z,-3.50
2022-12-13T20:59:09.423Z,-3.50
2022-12-13T21:01:38.797Z,-3.50
2022-12-13T21:04:09.204Z,-3.50
2022-12-13T21:06:39.873Z,-3.60
2022-12-13T21:09:09.377Z,-2.80
2022-12-13T21:11:43.148Z,-3.60
2022-12-13T21:14:18.796Z,-3.70
2022-12-13T21:16:52.762Z,-3.60
2022-12-13T21:19:27.355Z,-3.60
2022-12-13T21:21:56.307Z,-3.50
2022-12-13T21:24:25.856Z,-3.60
2022-12-13T21:26:56.684Z,-1.30
2022-12-13T21:29:27.508Z,-3.60
2022-12-13T21:31:55.439Z,-3.60
2022-12-13T21:34:24.495Z,-3.60
2022-12-13T21:36:53.038Z,-3.60
2022-12-13T21:39:25.546Z,-3.40
2022-12-13T21:41:54.817Z,-3.60
2022-12-13T21:44:24.368Z,-3.70
2022-12-13T21:47:11.830Z,-3.70
2022-12-13T21:49:41.354Z,-3.80
2022-12-13T21:52:09.530Z,-3.80
2022-12-13T21:54:38.374Z,-3.80
2022-12-13T21:57:25.845Z,-3.70
2022-12-13T21:59:53.733Z,-3.70
2022-12-13T22:02:22.496Z,-3.70
2022-12-13T22:04:55.911Z,-3.80
2022-12-13T22:07:27.554Z,-3.80
2022-12-13T22:09:56.380Z,-3.80
2022-12-13T22:12:32.709Z,-3.90
2022-12-13T22:15:01.915Z,-3.90
2022-12-13T22:17:35.136Z,-4.00
2022-12-13T22:20:06.396Z,-3.90
2022-12-13T22:22:33.821Z,-3.90
2022-12-13T22:25:01.577Z,-3.80
2022-12-13T22:27:28.978Z,-4.00
2022-12-13T22:29:57.778Z,-3.90
2022-12-13T22:32:27.618Z,-3.30
2022-12-13T22:34:56.244Z,-2.80
2022-12-13T22:37:25.076Z,-4.10
2022-12-13T22:39:53.093Z,-4.20
2022-12-13T22:42:21.211Z,-4.20
2022-12-13T22:44:49.960Z,-4.20
2022-12-13T22:47:18.895Z,-4.30
2022-12-13T22:49:48.693Z,-4.40
2022-12-13T22:52:17.811Z,-4.40
2022-12-13T22:54:45.444Z,-4.40
2022-12-13T22:57:12.903Z,-4.30
2022-12-13T22:59:40.593Z,-4.40
2022-12-13T23:02:09.949Z,-4.40
2022-12-13T23:04:38.886Z,-2.50
2022-12-13T23:07:06.415Z,-4.40
2022-12-13T23:09:34.006Z,-4.50
2022-12-13T23:12:20.188Z,-4.50
2022-12-13T23:14:48.056Z,-4.50
2022-12-13T23:17:15.349Z,-4.40
2022-12-13T23:19:49.473Z,-4.50
2022-12-13T23:22:20.840Z,-4.50
2022-12-13T23:24:49.449Z,-4.50
2022-12-13T23:27:17.076Z,-4.60
2022-12-13T23:29:44.977Z,-4.60
2022-12-13T23:32:12.739Z,-4.80
2022-12-13T23:34:40.360Z,-4.80
2022-12-13T23:37:07.837Z,-4.80
2022-12-13T23:39:37.759Z,-4.90
2022-12-13T23:42:05.151Z,-4.90
2022-12-13T23:44:32.776Z,-4.90
2022-12-13T23:47:00.262Z,-5.00
2022-12-13T23:49:27.912Z,-5.20
2022-12-13T23:51:55.373Z,-5.20
2022-12-13T23:54:22.999Z,-3.60
2022-12-13T23:56:50.373Z,-5.30
2022-12-13T23:59:19.044Z,-3.70
